sensor_id;sensor_type;location;lat;lon;timestamp;P1;durP1;ratioP1;P2;durP2;ratioP2
74160;SDS011;62512;-46.434;168.382;2022-08-24T00:00:47;7.7;;;1.2;;
74160;SDS011;62512;-46.434;168.382;2022-08-24T00:01:47;7.6;;;1.2;;
74160;SDS011;62512;-46.434;168.382;2022-08-24T00:02:47;4.9;;;1.3;;
74160;SDS011;62512;-46.434;168.382;2022-08-24T00:03:48;5.1;;;1.3;;
74160;SDS011;62512;-46.434;168.382;2022-08-24T00:04:48;3.7;;;1.1;;
74160;SDS011;62512;-46.434;168.382;2022-08-24T00:05:48;5.1;;;1.2;;
74160;SDS011;62512;-46.434;168.382;2022-08-24T00:06:47;6.9;;;1.9;;
74160;SDS011;62512;-46.434;168.382;2022-08-24T00:07:48;5.8;;;2.1;;
74160;SDS011;62512;-46.434;168.382;2022-08-24T00:08:48;6.8;;;1.6;;
74160;SDS011;62512;-46.434;168.382;2022-08-24T00:09:47;4.5;;;1.7;;
74160;SDS011;62512;-46.434;168.382;2022-08-24T00:10:47;4.9;;;2.2;;
74160;SDS011;62512;-46.434;168.382;2022-08-24T00:11:47;4.5;;;1.3;;
74160;SDS011;62512;-46.434;168.382;2022-08-24T00:12:47;4.7;;;1.0;;
74160;SDS011;62512;-46.434;168.382;2022-08-24T00:13:48;6.4;;;1.6;;
74160;SDS011;62512;-46.434;168.382;2022-08-24T00:14:47;8.9;;;1.9;;
74160;SDS011;62512;-46.434;168.382;2022-08-24T00:15:47;5.7;;;1.9;;
74160;SDS011;62512;-46.434;168.382;2022-08-24T00:16:47;6.3;;;1.8;;
74160;SDS011;62512;-46.434;168.382;2022-08-24T00:17:47;6.6;;;1.6;;
74160;SDS011;62512;-46.434;168.382;2022-08-24T00:18:47;7.4;;;1.8;;
74160;SDS011;62512;-46.434;168.382;2022-08-24T00:19:47;6.1;;;2.2;;
74160;SDS011;62512;-46.434;168.382;2022-08-24T00:20:47;5.6;;;1.9;;
74160;SDS011;62512;-46.434;168.382;2022-08-24T00:21:47;5.5;;;1.7;;
74160;SDS011;62512;-46.434;168.382;2022-08-24T00:22:47;7.2;;;1.9;;
74160;SDS011;62512;-46.434;168.382;2022-08-24T00:23:47;7.1;;;1.3;;
74160;SDS011;62512;-46.434;168.382;2022-08-24T00:24:47;9.8;;;2.2;;
74160;SDS011;62512;-46.434;168.382;2022-08-24T00:25:47;4.8;;;1.5;;
74160;SDS011;62512;-46.434;168.382;2022-08-24T00:26:47;10.8;;;2.1;;
74160;SDS011;62512;-46.434;168.382;2022-08-24T00:27:47;9.9;;;1.7;;
74160;SDS011;62512;-46.434;168.382;2022-08-24T00:28:47;7.8;;;1.3;;
74160;SDS011;62512;-46.434;168.382;2022-08-24T00:29:47;6.3;;;1.7;;
74160;SDS011;62512;-46.434;168.382;2022-08-24T00:30:47;4.3;;;1.1;;
74160;SDS011;62512;-46.434;168.382;2022-08-24T00:31:47;5.8;;;1.9;;
74160;SDS011;62512;-46.434;168.382;2022-08-24T00:32:48;7.2;;;1.9;;
74160;SDS011;62512;-46.434;168.382;2022-08-24T00:33:47;7.4;;;1.9;;
74160;SDS011;62512;-46.434;168.382;2022-08-24T00:34:47;6.8;;;1.7;;
74160;SDS011;62512;-46.434;168.382;2022-08-24T00:35:47;6.2;;;1.8;;
74160;SDS011;62512;-46.434;168.382;2022-08-24T00:38:48;7.9;;;2.5;;
74160;SDS011;62512;-46.434;168.382;2022-08-24T00:39:47;5.1;;;2.0;;
74160;SDS011;62512;-46.434;168.382;2022-08-24T00:40:48;6.2;;;1.5;;
74160;SDS011;62512;-46.434;168.382;2022-08-24T00:41:49;5.8;;;1.4;;
74160;SDS011;62512;-46.434;168.382;2022-08-24T00:42:48;6.5;;;1.6;;
74160;SDS011;62512;-46.434;168.382;2022-08-24T00:43:54;5.9;;;1.4;;
74160;SDS011;62512;-46.434;168.382;2022-08-24T00:44:47;8.9;;;1.7;;
74160;SDS011;62512;-46.434;168.382;2022-08-24T00:46:10;8.3;;;1.8;;
74160;SDS011;62512;-46.434;168.382;2022-08-24T00:46:53;7.0;;;1.5;;
74160;SDS011;62512;-46.434;168.382;2022-08-24T00:47:51;4.7;;;1.3;;
74160;SDS011;62512;-46.434;168.382;2022-08-24T00:48:52;5.3;;;1.4;;
74160;SDS011;62512;-46.434;168.382;2022-08-24T00:52:50;8.8;;;2.2;;
74160;SDS011;62512;-46.434;168.382;2022-08-24T00:53:50;7.8;;;2.1;;
74160;SDS011;62512;-46.434;168.382;2022-08-24T00:54:54;6.4;;;1.6;;
74160;SDS011;62512;-46.434;168.382;2022-08-24T00:55:50;8.3;;;2.2;;
74160;SDS011;62512;-46.434;168.382;2022-08-24T00:56:53;5.0;;;1.6;;
74160;SDS011;62512;-46.434;168.382;2022-08-24T00:57:49;10.2;;;2.1;;
74160;SDS011;62512;-46.434;168.382;2022-08-24T00:58:52;5.2;;;1.7;;
74160;SDS011;62512;-46.434;168.382;2022-08-24T00:59:53;7.0;;;1.8;;
74160;SDS011;62512;-46.434;168.382;2022-08-24T01:00:53;9.1;;;1.6;;
74160;SDS011;62512;-46.434;168.382;2022-08-24T01:01:49;9.8;;;2.0;;
74160;SDS011;62512;-46.434;168.382;2022-08-24T01:02:50;5.8;;;1.7;;
74160;SDS011;62512;-46.434;168.382;2022-08-24T01:03:47;11.3;;;2.1;;
74160;SDS011;62512;-46.434;168.382;2022-08-24T01:04:54;9.0;;;2.4;;
74160;SDS011;62512;-46.434;168.382;2022-08-24T01:05:47;9.1;;;2.6;;
74160;SDS011;62512;-46.434;168.382;2022-08-24T01:06:47;5.0;;;1.6;;
74160;SDS011;62512;-46.434;168.382;2022-08-24T01:07:47;8.6;;;1.9;;
74160;SDS011;62512;-46.434;168.382;2022-08-24T01:08:47;8.2;;;1.7;;
74160;SDS011;62512;-46.434;168.382;2022-08-24T01:09:50;7.7;;;2.5;;
74160;SDS011;62512;-46.434;168.382;2022-08-24T01:10:59;7.7;;;1.4;;
74160;SDS011;62512;-46.434;168.382;2022-08-24T01:11:48;3.8;;;1.1;;
74160;SDS011;62512;-46.434;168.382;2022-08-24T01:12:51;6.1;;;1.4;;
74160;SDS011;62512;-46.434;168.382;2022-08-24T01:13:49;5.0;;;2.1;;
74160;SDS011;62512;-46.434;168.382;2022-08-24T01:14:48;5.4;;;1.5;;
74160;SDS011;62512;-46.434;168.382;2022-08-24T01:16:47;6.9;;;1.3;;
74160;SDS011;62512;-46.434;168.382;2022-08-24T01:17:48;7.0;;;1.7;;
74160;SDS011;62512;-46.434;168.382;2022-08-24T01:18:47;7.9;;;2.0;;
74160;SDS011;62512;-46.434;168.382;2022-08-24T01:19:50;6.5;;;1.3;;
74160;SDS011;62512;-46.434;168.382;2022-08-24T01:20:53;6.6;;;1.3;;
74160;SDS011;62512;-46.434;168.382;2022-08-24T01:21:55;4.6;;;1.4;;
74160;SDS011;62512;-46.434;168.382;2022-08-24T01:23:04;5.9;;;1.4;;
74160;SDS011;62512;-46.434;168.382;2022-08-24T01:23:57;9.5;;;1.4;;
74160;SDS011;62512;-46.434;168.382;2022-08-24T01:24:47;6.1;;;1.6;;
74160;SDS011;62512;-46.434;168.382;2022-08-24T01:25:47;7.0;;;1.6;;
74160;SDS011;62512;-46.434;168.382;2022-08-24T01:26:49;5.3;;;1.4;;
74160;SDS011;62512;-46.434;168.382;2022-08-24T01:28:51;5.7;;;1.2;;
74160;SDS011;62512;-46.434;168.382;2022-08-24T01:29:48;5.8;;;1.2;;
74160;SDS011;62512;-46.434;168.382;2022-08-24T01:30:47;4.2;;;1.5;;
74160;SDS011;62512;-46.434;168.382;2022-08-24T01:31:47;5.8;;;1.6;;
74160;SDS011;62512;-46.434;168.382;2022-08-24T01:32:59;5.1;;;1.6;;
74160;SDS011;62512;-46.434;168.382;2022-08-24T01:33:50;5.4;;;1.6;;
74160;SDS011;62512;-46.434;168.382;2022-08-24T01:34:47;7.2;;;1.7;;
74160;SDS011;62512;-46.434;168.382;2022-08-24T01:35:47;7.9;;;2.2;;
74160;SDS011;62512;-46.434;168.382;2022-08-24T01:36:50;7.9;;;2.3;;
74160;SDS011;62512;-46.434;168.382;2022-08-24T01:37:48;7.7;;;2.0;;
74160;SDS011;62512;-46.434;168.382;2022-08-24T01:38:48;6.2;;;1.9;;
74160;SDS011;62512;-46.434;168.382;2022-08-24T01:39:49;6.7;;;2.1;;
74160;SDS011;62512;-46.434;168.382;2022-08-24T01:40:52;6.1;;;2.2;;
74160;SDS011;62512;-46.434;168.382;2022-08-24T01:41:48;11.2;;;3.0;;
74160;SDS011;62512;-46.434;168.382;2022-08-24T01:42:49;8.1;;;2.5;;
74160;SDS011;62512;-46.434;168.382;2022-08-24T01:43:47;6.9;;;2.2;;
74160;SDS011;62512;-46.434;168.382;2022-08-24T01:44:47;13.3;;;2.7;;
74160;SDS011;62512;-46.434;168.382;2022-08-24T01:45:47;10.3;;;1.9;;
74160;SDS011;62512;-46.434;168.382;2022-08-24T01:46:50;6.6;;;1.6;;
74160;SDS011;62512;-46.434;168.382;2022-08-24T01:47:47;12.4;;;2.2;;
74160;SDS011;62512;-46.434;168.382;2022-08-24T01:48:47;9.5;;;2.3;;
74160;SDS011;62512;-46.434;168.382;2022-08-24T01:49:48;10.4;;;2.7;;
74160;SDS011;62512;-46.434;168.382;2022-08-24T01:50:47;10.0;;;1.8;;
74160;SDS011;62512;-46.434;168.382;2022-08-24T01:51:47;8.9;;;2.2;;
74160;SDS011;62512;-46.434;168.382;2022-08-24T01:52:48;7.7;;;2.4;;
74160;SDS011;62512;-46.434;168.382;2022-08-24T01:53:48;8.9;;;2.4;;
74160;SDS011;62512;-46.434;168.382;2022-08-24T01:54:48;10.2;;;2.6;;
74160;SDS011;62512;-46.434;168.382;2022-08-24T01:55:47;9.7;;;2.5;;
74160;SDS011;62512;-46.434;168.382;2022-08-24T01:56:48;9.1;;;2.3;;
74160;SDS011;62512;-46.434;168.382;2022-08-24T01:57:47;7.7;;;3.0;;
74160;SDS011;62512;-46.434;168.382;2022-08-24T01:58:48;9.4;;;2.4;;
74160;SDS011;62512;-46.434;168.382;2022-08-24T01:59:47;7.8;;;2.5;;
74160;SDS011;62512;-46.434;168.382;2022-08-24T02:00:47;11.0;;;2.9;;
74160;SDS011;62512;-46.434;168.382;2022-08-24T02:01:54;10.6;;;2.6;;
74160;SDS011;62512;-46.434;168.382;2022-08-24T02:02:47;13.1;;;3.1;;
74160;SDS011;62512;-46.434;168.382;2022-08-24T02:03:47;10.5;;;2.6;;
74160;SDS011;62512;-46.434;168.382;2022-08-24T02:04:47;10.8;;;3.0;;
74160;SDS011;62512;-46.434;168.382;2022-08-24T02:05:47;10.5;;;2.7;;
74160;SDS011;62512;-46.434;168.382;2022-08-24T02:06:47;10.4;;;2.4;;
74160;SDS011;62512;-46.434;168.382;2022-08-24T02:07:47;6.7;;;2.2;;
74160;SDS011;62512;-46.434;168.382;2022-08-24T02:08:47;9.5;;;2.3;;
74160;SDS011;62512;-46.434;168.382;2022-08-24T02:09:47;9.7;;;2.8;;
74160;SDS011;62512;-46.434;168.382;2022-08-24T02:10:47;10.5;;;3.1;;
74160;SDS011;62512;-46.434;168.382;2022-08-24T02:11:48;11.6;;;2.8;;
74160;SDS011;62512;-46.434;168.382;2022-08-24T02:12:48;6.7;;;1.6;;
74160;SDS011;62512;-46.434;168.382;2022-08-24T02:13:47;8.2;;;2.2;;
74160;SDS011;62512;-46.434;168.382;2022-08-24T02:14:47;11.2;;;2.4;;
74160;SDS011;62512;-46.434;168.382;2022-08-24T02:15:47;8.2;;;1.7;;
74160;SDS011;62512;-46.434;168.382;2022-08-24T02:16:47;9.3;;;2.0;;
74160;SDS011;62512;-46.434;168.382;2022-08-24T02:17:47;6.6;;;1.9;;
74160;SDS011;62512;-46.434;168.382;2022-08-24T02:18:47;6.9;;;1.9;;
74160;SDS011;62512;-46.434;168.382;2022-08-24T02:19:47;7.2;;;2.1;;
74160;SDS011;62512;-46.434;168.382;2022-08-24T02:20:47;7.3;;;1.3;;
74160;SDS011;62512;-46.434;168.382;2022-08-24T02:21:47;7.2;;;1.6;;
74160;SDS011;62512;-46.434;168.382;2022-08-24T02:22:48;5.5;;;1.7;;
74160;SDS011;62512;-46.434;168.382;2022-08-24T02:23:48;7.7;;;1.6;;
74160;SDS011;62512;-46.434;168.382;2022-08-24T02:24:47;8.1;;;1.4;;
74160;SDS011;62512;-46.434;168.382;2022-08-24T02:25:48;7.3;;;1.7;;
74160;SDS011;62512;-46.434;168.382;2022-08-24T02:26:47;9.6;;;2.0;;
74160;SDS011;62512;-46.434;168.382;2022-08-24T02:27:47;8.2;;;1.6;;
74160;SDS011;62512;-46.434;168.382;2022-08-24T02:28:47;4.8;;;1.3;;
74160;SDS011;62512;-46.434;168.382;2022-08-24T02:29:48;6.3;;;1.7;;
74160;SDS011;62512;-46.434;168.382;2022-08-24T02:32:47;6.3;;;1.8;;
74160;SDS011;62512;-46.434;168.382;2022-08-24T02:33:48;5.6;;;1.3;;
74160;SDS011;62512;-46.434;168.382;2022-08-24T02:34:47;8.4;;;1.7;;
74160;SDS011;62512;-46.434;168.382;2022-08-24T02:35:48;8.3;;;1.7;;
74160;SDS011;62512;-46.434;168.382;2022-08-24T02:36:47;5.6;;;1.8;;
74160;SDS011;62512;-46.434;168.382;2022-08-24T02:37:49;6.8;;;1.8;;
74160;SDS011;62512;-46.434;168.382;2022-08-24T02:38:47;8.2;;;2.0;;
74160;SDS011;62512;-46.434;168.382;2022-08-24T02:39:47;7.0;;;1.7;;
74160;SDS011;62512;-46.434;168.382;2022-08-24T02:40:47;9.9;;;2.2;;
74160;SDS011;62512;-46.434;168.382;2022-08-24T02:41:47;5.8;;;1.5;;
74160;SDS011;62512;-46.434;168.382;2022-08-24T02:42:47;9.9;;;1.8;;
74160;SDS011;62512;-46.434;168.382;2022-08-24T02:43:47;8.8;;;1.9;;
74160;SDS011;62512;-46.434;168.382;2022-08-24T02:44:47;8.2;;;1.4;;
74160;SDS011;62512;-46.434;168.382;2022-08-24T02:45:47;6.7;;;1.4;;
74160;SDS011;62512;-46.434;168.382;2022-08-24T02:46:48;6.7;;;1.9;;
74160;SDS011;62512;-46.434;168.382;2022-08-24T02:47:47;8.0;;;1.5;;
74160;SDS011;62512;-46.434;168.382;2022-08-24T02:48:47;7.5;;;2.4;;
74160;SDS011;62512;-46.434;168.382;2022-08-24T02:49:48;11.8;;;2.0;;
74160;SDS011;62512;-46.434;168.382;2022-08-24T02:50:49;11.3;;;2.5;;
74160;SDS011;62512;-46.434;168.382;2022-08-24T02:51:47;10.3;;;2.1;;
74160;SDS011;62512;-46.434;168.382;2022-08-24T02:52:47;10.7;;;2.3;;
74160;SDS011;62512;-46.434;168.382;2022-08-24T02:53:48;13.1;;;1.9;;
74160;SDS011;62512;-46.434;168.382;2022-08-24T02:54:48;10.9;;;2.1;;
74160;SDS011;62512;-46.434;168.382;2022-08-24T02:55:48;10.2;;;1.9;;
74160;SDS011;62512;-46.434;168.382;2022-08-24T02:56:48;6.6;;;2.0;;
74160;SDS011;62512;-46.434;168.382;2022-08-24T02:57:48;9.7;;;2.0;;
74160;SDS011;62512;-46.434;168.382;2022-08-24T02:59:47;6.7;;;1.8;;
74160;SDS011;62512;-46.434;168.382;2022-08-24T03:00:47;9.0;;;1.6;;
74160;SDS011;62512;-46.434;168.382;2022-08-24T03:01:47;4.3;;;1.0;;
74160;SDS011;62512;-46.434;168.382;2022-08-24T03:02:48;3.8;;;1.1;;
74160;SDS011;62512;-46.434;168.382;2022-08-24T03:03:47;9.1;;;2.1;;
74160;SDS011;62512;-46.434;168.382;2022-08-24T03:04:48;6.5;;;1.7;;
74160;SDS011;62512;-46.434;168.382;2022-08-24T03:05:47;5.2;;;1.6;;
74160;SDS011;62512;-46.434;168.382;2022-08-24T03:06:47;6.0;;;1.4;;
74160;SDS011;62512;-46.434;168.382;2022-08-24T03:07:47;8.9;;;1.8;;
74160;SDS011;62512;-46.434;168.382;2022-08-24T03:08:47;6.0;;;1.9;;
74160;SDS011;62512;-46.434;168.382;2022-08-24T03:09:47;6.9;;;1.5;;
74160;SDS011;62512;-46.434;168.382;2022-08-24T03:10:47;6.8;;;1.7;;
74160;SDS011;62512;-46.434;168.382;2022-08-24T03:11:47;5.4;;;1.4;;
74160;SDS011;62512;-46.434;168.382;2022-08-24T03:12:48;9.1;;;1.9;;
74160;SDS011;62512;-46.434;168.382;2022-08-24T03:13:47;5.7;;;1.2;;
74160;SDS011;62512;-46.434;168.382;2022-08-24T03:14:47;5.0;;;1.3;;
74160;SDS011;62512;-46.434;168.382;2022-08-24T03:15:47;5.2;;;1.1;;
74160;SDS011;62512;-46.434;168.382;2022-08-24T03:16:47;5.2;;;1.1;;
74160;SDS011;62512;-46.434;168.382;2022-08-24T03:17:48;5.9;;;1.2;;
74160;SDS011;62512;-46.434;168.382;2022-08-24T03:18:47;5.8;;;1.4;;
74160;SDS011;62512;-46.434;168.382;2022-08-24T03:19:47;4.6;;;1.6;;
74160;SDS011;62512;-46.434;168.382;2022-08-24T03:21:47;10.0;;;2.7;;
74160;SDS011;62512;-46.434;168.382;2022-08-24T03:22:48;8.8;;;1.8;;
74160;SDS011;62512;-46.434;168.382;2022-08-24T03:24:47;8.5;;;2.6;;
74160;SDS011;62512;-46.434;168.382;2022-08-24T03:27:47;8.5;;;1.6;;
74160;SDS011;62512;-46.434;168.382;2022-08-24T03:28:47;7.5;;;1.6;;
74160;SDS011;62512;-46.434;168.382;2022-08-24T03:29:47;9.6;;;1.6;;
74160;SDS011;62512;-46.434;168.382;2022-08-24T03:30:47;10.4;;;1.9;;
74160;SDS011;62512;-46.434;168.382;2022-08-24T03:31:47;8.8;;;2.5;;
74160;SDS011;62512;-46.434;168.382;2022-08-24T03:32:47;6.7;;;1.4;;
74160;SDS011;62512;-46.434;168.382;2022-08-24T03:33:47;6.4;;;1.8;;
74160;SDS011;62512;-46.434;168.382;2022-08-24T03:34:47;8.5;;;2.1;;
74160;SDS011;62512;-46.434;168.382;2022-08-24T03:35:47;8.7;;;2.2;;
74160;SDS011;62512;-46.434;168.382;2022-08-24T03:36:47;6.4;;;2.2;;
74160;SDS011;62512;-46.434;168.382;2022-08-24T03:37:48;7.0;;;1.9;;
74160;SDS011;62512;-46.434;168.382;2022-08-24T03:38:47;7.2;;;2.0;;
74160;SDS011;62512;-46.434;168.382;2022-08-24T03:39:47;7.9;;;2.1;;
74160;SDS011;62512;-46.434;168.382;2022-08-24T03:40:47;10.5;;;2.6;;
74160;SDS011;62512;-46.434;168.382;2022-08-24T03:41:47;6.3;;;2.4;;
74160;SDS011;62512;-46.434;168.382;2022-08-24T03:42:47;12.7;;;3.4;;
74160;SDS011;62512;-46.434;168.382;2022-08-24T03:43:47;17.1;;;3.9;;
74160;SDS011;62512;-46.434;168.382;2022-08-24T03:44:47;9.6;;;2.8;;
74160;SDS011;62512;-46.434;168.382;2022-08-24T03:45:47;10.3;;;2.3;;
74160;SDS011;62512;-46.434;168.382;2022-08-24T03:46:47;15.7;;;4.9;;
74160;SDS011;62512;-46.434;168.382;2022-08-24T03:47:47;12.6;;;4.1;;
74160;SDS011;62512;-46.434;168.382;2022-08-24T03:48:48;11.0;;;3.0;;
74160;SDS011;62512;-46.434;168.382;2022-08-24T03:49:47;7.8;;;2.5;;
74160;SDS011;62512;-46.434;168.382;2022-08-24T03:51:47;10.0;;;2.7;;
74160;SDS011;62512;-46.434;168.382;2022-08-24T03:53:47;14.3;;;3.6;;
74160;SDS011;62512;-46.434;168.382;2022-08-24T03:55:47;11.5;;;2.8;;
74160;SDS011;62512;-46.434;168.382;2022-08-24T03:56:47;12.6;;;4.0;;
74160;SDS011;62512;-46.434;168.382;2022-08-24T03:57:47;12.0;;;2.8;;
74160;SDS011;62512;-46.434;168.382;2022-08-24T03:58:47;11.4;;;3.8;;
74160;SDS011;62512;-46.434;168.382;2022-08-24T03:59:48;11.3;;;2.9;;
74160;SDS011;62512;-46.434;168.382;2022-08-24T04:00:47;17.7;;;5.4;;
74160;SDS011;62512;-46.434;168.382;2022-08-24T04:01:47;15.4;;;4.2;;
74160;SDS011;62512;-46.434;168.382;2022-08-24T04:02:47;14.1;;;3.9;;
74160;SDS011;62512;-46.434;168.382;2022-08-24T04:03:48;9.6;;;3.0;;
74160;SDS011;62512;-46.434;168.382;2022-08-24T04:04:47;7.6;;;2.7;;
74160;SDS011;62512;-46.434;168.382;2022-08-24T04:06:47;10.9;;;2.7;;
74160;SDS011;62512;-46.434;168.382;2022-08-24T04:07:47;9.5;;;2.7;;
74160;SDS011;62512;-46.434;168.382;2022-08-24T04:08:48;9.8;;;2.8;;
74160;SDS011;62512;-46.434;168.382;2022-08-24T04:09:47;7.2;;;1.7;;
74160;SDS011;62512;-46.434;168.382;2022-08-24T04:10:47;6.6;;;1.9;;
74160;SDS011;62512;-46.434;168.382;2022-08-24T04:11:47;7.1;;;2.0;;
74160;SDS011;62512;-46.434;168.382;2022-08-24T04:12:47;12.8;;;3.0;;
74160;SDS011;62512;-46.434;168.382;2022-08-24T04:13:47;5.6;;;1.8;;
74160;SDS011;62512;-46.434;168.382;2022-08-24T04:14:50;8.8;;;1.9;;
74160;SDS011;62512;-46.434;168.382;2022-08-24T04:15:47;7.4;;;2.1;;
74160;SDS011;62512;-46.434;168.382;2022-08-24T04:16:47;4.8;;;1.5;;
74160;SDS011;62512;-46.434;168.382;2022-08-24T04:17:47;4.8;;;1.5;;
74160;SDS011;62512;-46.434;168.382;2022-08-24T04:18:49;6.0;;;1.5;;
74160;SDS011;62512;-46.434;168.382;2022-08-24T04:19:47;11.2;;;3.2;;
74160;SDS011;62512;-46.434;168.382;2022-08-24T04:20:47;5.8;;;2.2;;
74160;SDS011;62512;-46.434;168.382;2022-08-24T04:21:47;9.0;;;2.1;;
74160;SDS011;62512;-46.434;168.382;2022-08-24T04:22:47;10.2;;;2.5;;
74160;SDS011;62512;-46.434;168.382;2022-08-24T04:23:48;10.2;;;2.0;;
74160;SDS011;62512;-46.434;168.382;2022-08-24T04:24:47;7.4;;;1.7;;
74160;SDS011;62512;-46.434;168.382;2022-08-24T04:25:47;9.6;;;1.9;;
74160;SDS011;62512;-46.434;168.382;2022-08-24T04:26:47;8.5;;;2.4;;
74160;SDS011;62512;-46.434;168.382;2022-08-24T04:27:47;8.5;;;2.4;;
74160;SDS011;62512;-46.434;168.382;2022-08-24T04:28:47;8.4;;;2.1;;
74160;SDS011;62512;-46.434;168.382;2022-08-24T04:29:47;9.6;;;2.5;;
74160;SDS011;62512;-46.434;168.382;2022-08-24T04:30:48;8.4;;;1.9;;
74160;SDS011;62512;-46.434;168.382;2022-08-24T04:31:47;8.4;;;1.9;;
74160;SDS011;62512;-46.434;168.382;2022-08-24T04:32:47;7.4;;;2.1;;
74160;SDS011;62512;-46.434;168.382;2022-08-24T04:33:48;6.5;;;2.0;;
74160;SDS011;62512;-46.434;168.382;2022-08-24T04:34:47;6.9;;;2.4;;
74160;SDS011;62512;-46.434;168.382;2022-08-24T04:35:48;12.5;;;3.5;;
74160;SDS011;62512;-46.434;168.382;2022-08-24T04:36:47;7.9;;;1.9;;
74160;SDS011;62512;-46.434;168.382;2022-08-24T04:37:47;7.3;;;1.5;;
74160;SDS011;62512;-46.434;168.382;2022-08-24T04:38:48;6.1;;;1.2;;
74160;SDS011;62512;-46.434;168.382;2022-08-24T04:39:47;6.5;;;1.7;;
74160;SDS011;62512;-46.434;168.382;2022-08-24T04:40:47;6.8;;;1.8;;
74160;SDS011;62512;-46.434;168.382;2022-08-24T04:41:47;11.4;;;2.5;;
74160;SDS011;62512;-46.434;168.382;2022-08-24T04:42:47;7.3;;;2.1;;
74160;SDS011;62512;-46.434;168.382;2022-08-24T04:43:48;3.9;;;1.2;;
74160;SDS011;62512;-46.434;168.382;2022-08-24T04:44:47;5.9;;;1.9;;
74160;SDS011;62512;-46.434;168.382;2022-08-24T04:45:47;5.3;;;1.5;;
74160;SDS011;62512;-46.434;168.382;2022-08-24T04:47:47;5.0;;;1.7;;
74160;SDS011;62512;-46.434;168.382;2022-08-24T04:49:47;5.0;;;1.1;;
74160;SDS011;62512;-46.434;168.382;2022-08-24T04:50:47;6.4;;;1.4;;
74160;SDS011;62512;-46.434;168.382;2022-08-24T04:51:47;5.5;;;1.1;;
74160;SDS011;62512;-46.434;168.382;2022-08-24T04:53:48;8.6;;;2.1;;
74160;SDS011;62512;-46.434;168.382;2022-08-24T04:54:47;8.0;;;2.3;;
74160;SDS011;62512;-46.434;168.382;2022-08-24T04:55:48;10.8;;;3.0;;
74160;SDS011;62512;-46.434;168.382;2022-08-24T04:56:58;5.4;;;1.8;;
74160;SDS011;62512;-46.434;168.382;2022-08-24T04:57:47;7.3;;;2.5;;
74160;SDS011;62512;-46.434;168.382;2022-08-24T04:58:47;8.5;;;2.9;;
74160;SDS011;62512;-46.434;168.382;2022-08-24T04:59:47;8.1;;;2.5;;
74160;SDS011;62512;-46.434;168.382;2022-08-24T05:00:47;7.1;;;2.0;;
74160;SDS011;62512;-46.434;168.382;2022-08-24T05:01:47;7.3;;;1.9;;
74160;SDS011;62512;-46.434;168.382;2022-08-24T05:02:47;5.8;;;1.5;;
74160;SDS011;62512;-46.434;168.382;2022-08-24T05:04:47;9.2;;;3.0;;
74160;SDS011;62512;-46.434;168.382;2022-08-24T05:05:49;8.6;;;2.6;;
74160;SDS011;62512;-46.434;168.382;2022-08-24T05:06:47;9.4;;;2.8;;
74160;SDS011;62512;-46.434;168.382;2022-08-24T05:07:47;10.4;;;2.5;;
74160;SDS011;62512;-46.434;168.382;2022-08-24T05:09:47;5.6;;;2.0;;
74160;SDS011;62512;-46.434;168.382;2022-08-24T05:11:47;7.8;;;2.4;;
74160;SDS011;62512;-46.434;168.382;2022-08-24T05:12:47;7.2;;;2.3;;
74160;SDS011;62512;-46.434;168.382;2022-08-24T05:13:49;7.5;;;1.8;;
74160;SDS011;62512;-46.434;168.382;2022-08-24T05:14:48;5.7;;;1.6;;
74160;SDS011;62512;-46.434;168.382;2022-08-24T05:15:48;4.1;;;1.2;;
74160;SDS011;62512;-46.434;168.382;2022-08-24T05:16:47;5.9;;;1.7;;
74160;SDS011;62512;-46.434;168.382;2022-08-24T05:17:47;6.8;;;2.5;;
74160;SDS011;62512;-46.434;168.382;2022-08-24T05:18:47;9.0;;;2.1;;
74160;SDS011;62512;-46.434;168.382;2022-08-24T05:19:47;5.3;;;1.8;;
74160;SDS011;62512;-46.434;168.382;2022-08-24T05:20:47;8.4;;;2.1;;
74160;SDS011;62512;-46.434;168.382;2022-08-24T05:21:47;5.1;;;1.6;;
74160;SDS011;62512;-46.434;168.382;2022-08-24T05:22:49;6.4;;;1.5;;
74160;SDS011;62512;-46.434;168.382;2022-08-24T05:23:48;6.1;;;1.5;;
74160;SDS011;62512;-46.434;168.382;2022-08-24T05:24:47;6.7;;;1.9;;
74160;SDS011;62512;-46.434;168.382;2022-08-24T05:25:47;7.4;;;1.9;;
74160;SDS011;62512;-46.434;168.382;2022-08-24T05:26:47;8.1;;;1.8;;
74160;SDS011;62512;-46.434;168.382;2022-08-24T05:27:47;5.6;;;1.3;;
74160;SDS011;62512;-46.434;168.382;2022-08-24T05:28:47;6.8;;;1.5;;
74160;SDS011;62512;-46.434;168.382;2022-08-24T05:29:52;11.3;;;2.1;;
74160;SDS011;62512;-46.434;168.382;2022-08-24T05:30:47;8.3;;;1.7;;
74160;SDS011;62512;-46.434;168.382;2022-08-24T05:31:47;9.2;;;1.5;;
74160;SDS011;62512;-46.434;168.382;2022-08-24T05:32:47;10.8;;;2.6;;
74160;SDS011;62512;-46.434;168.382;2022-08-24T05:33:48;7.2;;;1.8;;
74160;SDS011;62512;-46.434;168.382;2022-08-24T05:34:47;8.3;;;2.4;;
74160;SDS011;62512;-46.434;168.382;2022-08-24T05:35:47;8.5;;;2.4;;
74160;SDS011;62512;-46.434;168.382;2022-08-24T05:36:47;7.4;;;2.0;;
74160;SDS011;62512;-46.434;168.382;2022-08-24T05:41:47;7.1;;;2.9;;
74160;SDS011;62512;-46.434;168.382;2022-08-24T05:42:47;7.9;;;3.1;;
74160;SDS011;62512;-46.434;168.382;2022-08-24T05:43:47;9.8;;;3.1;;
74160;SDS011;62512;-46.434;168.382;2022-08-24T05:44:47;10.9;;;2.8;;
74160;SDS011;62512;-46.434;168.382;2022-08-24T05:45:47;9.2;;;2.8;;
74160;SDS011;62512;-46.434;168.382;2022-08-24T05:46:47;8.2;;;2.1;;
74160;SDS011;62512;-46.434;168.382;2022-08-24T05:47:47;8.7;;;3.9;;
74160;SDS011;62512;-46.434;168.382;2022-08-24T05:48:47;7.5;;;2.9;;
74160;SDS011;62512;-46.434;168.382;2022-08-24T05:49:47;6.6;;;2.0;;
74160;SDS011;62512;-46.434;168.382;2022-08-24T05:50:53;5.1;;;2.2;;
74160;SDS011;62512;-46.434;168.382;2022-08-24T05:51:47;11.1;;;4.1;;
74160;SDS011;62512;-46.434;168.382;2022-08-24T05:52:47;10.0;;;2.2;;
74160;SDS011;62512;-46.434;168.382;2022-08-24T05:54:53;6.5;;;2.3;;
74160;SDS011;62512;-46.434;168.382;2022-08-24T05:55:47;9.1;;;3.7;;
74160;SDS011;62512;-46.434;168.382;2022-08-24T05:56:47;10.3;;;2.9;;
74160;SDS011;62512;-46.434;168.382;2022-08-24T05:57:47;9.3;;;3.0;;
74160;SDS011;62512;-46.434;168.382;2022-08-24T05:58:48;7.9;;;2.5;;
74160;SDS011;62512;-46.434;168.382;2022-08-24T05:59:47;8.3;;;3.0;;
74160;SDS011;62512;-46.434;168.382;2022-08-24T06:00:47;9.3;;;3.4;;
74160;SDS011;62512;-46.434;168.382;2022-08-24T06:01:47;8.6;;;3.4;;
74160;SDS011;62512;-46.434;168.382;2022-08-24T06:02:47;14.7;;;3.9;;
74160;SDS011;62512;-46.434;168.382;2022-08-24T06:03:48;14.4;;;4.2;;
74160;SDS011;62512;-46.434;168.382;2022-08-24T06:04:47;10.9;;;3.0;;
74160;SDS011;62512;-46.434;168.382;2022-08-24T06:05:47;8.1;;;3.0;;
74160;SDS011;62512;-46.434;168.382;2022-08-24T06:06:47;7.0;;;2.9;;
74160;SDS011;62512;-46.434;168.382;2022-08-24T06:07:47;9.7;;;2.4;;
74160;SDS011;62512;-46.434;168.382;2022-08-24T06:08:50;12.0;;;3.2;;
74160;SDS011;62512;-46.434;168.382;2022-08-24T06:09:47;13.8;;;6.0;;
74160;SDS011;62512;-46.434;168.382;2022-08-24T06:10:47;11.2;;;3.3;;
74160;SDS011;62512;-46.434;168.382;2022-08-24T06:11:47;12.9;;;3.0;;
74160;SDS011;62512;-46.434;168.382;2022-08-24T06:12:47;7.0;;;2.0;;
74160;SDS011;62512;-46.434;168.382;2022-08-24T06:14:47;9.0;;;2.2;;
74160;SDS011;62512;-46.434;168.382;2022-08-24T06:15:47;11.8;;;2.5;;
74160;SDS011;62512;-46.434;168.382;2022-08-24T06:16:47;9.4;;;2.1;;
74160;SDS011;62512;-46.434;168.382;2022-08-24T06:17:47;8.6;;;2.6;;
74160;SDS011;62512;-46.434;168.382;2022-08-24T06:18:47;6.2;;;1.6;;
74160;SDS011;62512;-46.434;168.382;2022-08-24T06:20:47;8.5;;;2.3;;
74160;SDS011;62512;-46.434;168.382;2022-08-24T06:21:48;10.6;;;2.3;;
74160;SDS011;62512;-46.434;168.382;2022-08-24T06:22:47;7.2;;;2.1;;
74160;SDS011;62512;-46.434;168.382;2022-08-24T06:23:48;9.3;;;2.7;;
74160;SDS011;62512;-46.434;168.382;2022-08-24T06:24:47;9.7;;;2.7;;
74160;SDS011;62512;-46.434;168.382;2022-08-24T06:25:47;7.9;;;3.0;;